<?xml version="1.0" encoding="UTF-8" standalone="no" ?>
<gpx xmlns="http://www.topografix.com/GPX/1/1" xmlns:xsi="http://www.w3.org/2001/XMLSchema-instance" xsi:schemaLocation="http://www.topografix.com/GPX/1/1 http://www.topografix.com/GPX/1/1/gpx.xsd" version="1.1" creator="VisuGPX - https://www.visugpx.com">
  <metadata>
    <name>65 - PEDESTRE - La fruitière au lac d\'Estom et retour</name>
    <desc><![CDATA[Petite sortie]]></desc>
  </metadata>
  <wpt lat="42.85205" lon="-0.09777">
    <ele>1541.107421875</ele>
    <name><![CDATA[001]]></name>
    <desc><![CDATA[09-JUL-15 10:54:57]]></desc>
    <cmt><![CDATA[09-JUL-15 10:54:57]]></cmt>
  </wpt>
  <wpt lat="42.80774" lon="-0.09945">
    <ele>1783.8386230469</ele>
    <name><![CDATA[002]]></name>
    <desc><![CDATA[09-JUL-15 11:40:35]]></desc>
    <cmt><![CDATA[09-JUL-15 11:40:35]]></cmt>
  </wpt>
  <wpt lat="42.85352" lon="-0.09853">
    <ele>1369.1</ele>
    <name><![CDATA[La Fruitière]]></name>
    <desc><![CDATA[La Fruitière]]></desc>
    <cmt><![CDATA[La Fruitière]]></cmt>
  </wpt>
  <wpt lat="42.80625" lon="-0.09995">
    <ele>1802</ele>
    <name><![CDATA[Lac D'Estom]]></name>
    <desc><![CDATA[Lac D'Estom]]></desc>
    <cmt><![CDATA[Lac D'Estom]]></cmt>
  </wpt>
  <wpt lat="42.853" lon="-0.09797">
    <ele>1365.2</ele>
    <name><![CDATA[Parking]]></name>
    <desc><![CDATA[Parking la Fruitière 1371m]]></desc>
    <cmt><![CDATA[Parking la Fruitière 1371m]]></cmt>
  </wpt>
  <wpt lat="42.80846" lon="-0.09922">
    <ele>1796.9</ele>
    <name><![CDATA[Refuge D'Estom]]></name>
    <desc><![CDATA[Refuge D'Estom (Hôtellerie)]]></desc>
    <cmt><![CDATA[Refuge D'Estom (Hôtellerie)]]></cmt>
  </wpt>
  <trk>
    <name><![CDATA[ACTIVE LOG 008]]></name>
    <trkseg>
      <trkpt lat="42.81484" lon="-0.09828">
        <ele>1730.0297851562</ele>
        <time>2015-07-09T09:31:49Z</time>
      </trkpt>
      <trkpt lat="42.81439" lon="-0.09839">
        <ele>1730.5104980469</ele>
        <time>2015-07-09T09:31:50Z</time>
      </trkpt>
      <trkpt lat="42.81369" lon="-0.09854">
        <ele>1730.9912109375</ele>
        <time>2015-07-09T09:31:54Z</time>
      </trkpt>
      <trkpt lat="42.81253" lon="-0.09885">
        <ele>1732.4331054688</ele>
        <time>2015-07-09T09:32:09Z</time>
      </trkpt>
      <trkpt lat="42.81098" lon="-0.09928">
        <ele>1730.5104980469</ele>
        <time>2015-07-09T09:32:18Z</time>
      </trkpt>
      <trkpt lat="42.81047" lon="-0.09946">
        <ele>1732.4331054688</ele>
        <time>2015-07-09T09:32:32Z</time>
      </trkpt>
      <trkpt lat="42.81042" lon="-0.09944">
        <ele>1733.3942871094</ele>
        <time>2015-07-09T09:32:44Z</time>
      </trkpt>
      <trkpt lat="42.81027" lon="-0.09947">
        <ele>1734.8364257812</ele>
        <time>2015-07-09T09:32:58Z</time>
      </trkpt>
      <trkpt lat="42.81018" lon="-0.09947">
        <ele>1737.7202148438</ele>
        <time>2015-07-09T09:33:12Z</time>
      </trkpt>
      <trkpt lat="42.81011" lon="-0.09951">
        <ele>1738.681640625</ele>
        <time>2015-07-09T09:33:22Z</time>
      </trkpt>
      <trkpt lat="42.81002" lon="-0.09955">
        <ele>1739.162109375</ele>
        <time>2015-07-09T09:33:34Z</time>
      </trkpt>
      <trkpt lat="42.80997" lon="-0.09956">
        <ele>1741.5656738281</ele>
        <time>2015-07-09T09:33:53Z</time>
      </trkpt>
      <trkpt lat="42.8098" lon="-0.09965">
        <ele>1743.0075683594</ele>
        <time>2015-07-09T09:34:09Z</time>
      </trkpt>
      <trkpt lat="42.80978" lon="-0.09965">
        <ele>1743.0075683594</ele>
        <time>2015-07-09T09:34:11Z</time>
      </trkpt>
      <trkpt lat="42.8097" lon="-0.09965">
        <ele>1744.4494628906</ele>
        <time>2015-07-09T09:34:22Z</time>
      </trkpt>
      <trkpt lat="42.80961" lon="-0.09971">
        <ele>1746.3723144531</ele>
        <time>2015-07-09T09:34:33Z</time>
      </trkpt>
      <trkpt lat="42.80954" lon="-0.09982">
        <ele>1749.7368164062</ele>
        <time>2015-07-09T09:34:48Z</time>
      </trkpt>
      <trkpt lat="42.80951" lon="-0.09988">
        <ele>1751.6594238281</ele>
        <time>2015-07-09T09:34:57Z</time>
      </trkpt>
      <trkpt lat="42.80948" lon="-0.09996">
        <ele>1752.6206054688</ele>
        <time>2015-07-09T09:35:07Z</time>
      </trkpt>
      <trkpt lat="42.80944" lon="-0.09997">
        <ele>1754.5432128906</ele>
        <time>2015-07-09T09:35:20Z</time>
      </trkpt>
      <trkpt lat="42.80944" lon="-0.10007">
        <ele>1756.4660644531</ele>
        <time>2015-07-09T09:35:31Z</time>
      </trkpt>
      <trkpt lat="42.8094" lon="-0.10005">
        <ele>1758.388671875</ele>
        <time>2015-07-09T09:35:41Z</time>
      </trkpt>
      <trkpt lat="42.80934" lon="-0.09999">
        <ele>1759.8305664062</ele>
        <time>2015-07-09T09:35:51Z</time>
      </trkpt>
      <trkpt lat="42.80927" lon="-0.09996">
        <ele>1760.7919921875</ele>
        <time>2015-07-09T09:36:00Z</time>
      </trkpt>
      <trkpt lat="42.80913" lon="-0.09996">
        <ele>1761.2727050781</ele>
        <time>2015-07-09T09:36:14Z</time>
      </trkpt>
      <trkpt lat="42.80912" lon="-0.09996">
        <ele>1761.7534179688</ele>
        <time>2015-07-09T09:36:15Z</time>
      </trkpt>
      <trkpt lat="42.809" lon="-0.10003">
        <ele>1761.7534179688</ele>
        <time>2015-07-09T09:36:29Z</time>
      </trkpt>
      <trkpt lat="42.80899" lon="-0.10003">
        <ele>1761.2727050781</ele>
        <time>2015-07-09T09:36:30Z</time>
      </trkpt>
      <trkpt lat="42.80887" lon="-0.09994">
        <ele>1763.1953125</ele>
        <time>2015-07-09T09:36:46Z</time>
      </trkpt>
      <trkpt lat="42.80886" lon="-0.09982">
        <ele>1764.6372070312</ele>
        <time>2015-07-09T09:37:01Z</time>
      </trkpt>
      <trkpt lat="42.80883" lon="-0.09976">
        <ele>1765.5986328125</ele>
        <time>2015-07-09T09:37:17Z</time>
      </trkpt>
      <trkpt lat="42.80879" lon="-0.09974">
        <ele>1765.1179199219</ele>
        <time>2015-07-09T09:37:22Z</time>
      </trkpt>
      <trkpt lat="42.80876" lon="-0.09972">
        <ele>1765.5986328125</ele>
        <time>2015-07-09T09:37:25Z</time>
      </trkpt>
      <trkpt lat="42.80862" lon="-0.09962">
        <ele>1765.1179199219</ele>
        <time>2015-07-09T09:37:41Z</time>
      </trkpt>
      <trkpt lat="42.80854" lon="-0.09959">
        <ele>1767.0405273438</ele>
        <time>2015-07-09T09:37:50Z</time>
      </trkpt>
      <trkpt lat="42.80854" lon="-0.09959">
        <ele>1767.0405273438</ele>
        <time>2015-07-09T09:37:52Z</time>
      </trkpt>
      <trkpt lat="42.80848" lon="-0.09949">
        <ele>1768.482421875</ele>
        <time>2015-07-09T09:38:04Z</time>
      </trkpt>
      <trkpt lat="42.80843" lon="-0.09951">
        <ele>1769.9243164062</ele>
        <time>2015-07-09T09:38:09Z</time>
      </trkpt>
      <trkpt lat="42.80827" lon="-0.09961">
        <ele>1771.8469238281</ele>
        <time>2015-07-09T09:38:26Z</time>
      </trkpt>
      <trkpt lat="42.80823" lon="-0.09959">
        <ele>1773.2893066406</ele>
        <time>2015-07-09T09:38:34Z</time>
      </trkpt>
      <trkpt lat="42.80817" lon="-0.09955">
        <ele>1775.2116699219</ele>
        <time>2015-07-09T09:38:46Z</time>
      </trkpt>
      <trkpt lat="42.8081" lon="-0.09952">
        <ele>1776.6538085938</ele>
        <time>2015-07-09T09:38:58Z</time>
      </trkpt>
      <trkpt lat="42.80808" lon="-0.09948">
        <ele>1779.5375976562</ele>
        <time>2015-07-09T09:39:09Z</time>
      </trkpt>
      <trkpt lat="42.80802" lon="-0.09943">
        <ele>1781.4602050781</ele>
        <time>2015-07-09T09:39:35Z</time>
      </trkpt>
      <trkpt lat="42.80792" lon="-0.09939">
        <ele>1781.9409179688</ele>
        <time>2015-07-09T09:39:57Z</time>
      </trkpt>
      <trkpt lat="42.80785" lon="-0.0994">
        <ele>1783.8635253906</ele>
        <time>2015-07-09T09:40:13Z</time>
      </trkpt>
      <trkpt lat="42.80781" lon="-0.09941">
        <ele>1783.8635253906</ele>
        <time>2015-07-09T09:40:28Z</time>
      </trkpt>
      <trkpt lat="42.8077" lon="-0.09953">
        <ele>1783.8635253906</ele>
        <time>2015-07-09T09:40:44Z</time>
      </trkpt>
      <trkpt lat="42.80766" lon="-0.09961">
        <ele>1783.3828125</ele>
        <time>2015-07-09T09:40:51Z</time>
      </trkpt>
      <trkpt lat="42.80762" lon="-0.09969">
        <ele>1783.8635253906</ele>
        <time>2015-07-09T09:41:07Z</time>
      </trkpt>
      <trkpt lat="42.8076" lon="-0.09975">
        <ele>1783.8635253906</ele>
        <time>2015-07-09T09:41:17Z</time>
      </trkpt>
      <trkpt lat="42.80762" lon="-0.09985">
        <ele>1787.2280273438</ele>
        <time>2015-07-09T09:41:49Z</time>
      </trkpt>
      <trkpt lat="42.80762" lon="-0.0999">
        <ele>1788.1896972656</ele>
        <time>2015-07-09T09:41:56Z</time>
      </trkpt>
      <trkpt lat="42.80765" lon="-0.09996">
        <ele>1791.0734863281</ele>
        <time>2015-07-09T09:42:10Z</time>
      </trkpt>
      <trkpt lat="42.80766" lon="-0.10004">
        <ele>1792.515625</ele>
        <time>2015-07-09T09:42:24Z</time>
      </trkpt>
      <trkpt lat="42.80761" lon="-0.10011">
        <ele>1794.4379882812</ele>
        <time>2015-07-09T09:42:46Z</time>
      </trkpt>
      <trkpt lat="42.80759" lon="-0.10013">
        <ele>1794.4379882812</ele>
        <time>2015-07-09T09:42:49Z</time>
      </trkpt>
      <trkpt lat="42.80749" lon="-0.10035">
        <ele>1797.3220214844</ele>
        <time>2015-07-09T09:43:08Z</time>
      </trkpt>
      <trkpt lat="42.80748" lon="-0.10046">
        <ele>1797.802734375</ele>
        <time>2015-07-09T09:43:19Z</time>
      </trkpt>
      <trkpt lat="42.80743" lon="-0.10056">
        <ele>1798.283203125</ele>
        <time>2015-07-09T09:43:31Z</time>
      </trkpt>
      <trkpt lat="42.80738" lon="-0.10066">
        <ele>1801.1672363281</ele>
        <time>2015-07-09T09:43:48Z</time>
      </trkpt>
      <trkpt lat="42.80733" lon="-0.10079">
        <ele>1802.6091308594</ele>
        <time>2015-07-09T09:44:00Z</time>
      </trkpt>
      <trkpt lat="42.80727" lon="-0.10092">
        <ele>1804.5319824219</ele>
        <time>2015-07-09T09:44:15Z</time>
      </trkpt>
      <trkpt lat="42.80723" lon="-0.10101">
        <ele>1805.9738769531</ele>
        <time>2015-07-09T09:44:26Z</time>
      </trkpt>
      <trkpt lat="42.80722" lon="-0.10103">
        <ele>1807.8967285156</ele>
        <time>2015-07-09T09:44:29Z</time>
      </trkpt>
      <trkpt lat="42.8072" lon="-0.10111">
        <ele>1808.8579101562</ele>
        <time>2015-07-09T09:45:14Z</time>
      </trkpt>
      <trkpt lat="42.80727" lon="-0.10111">
        <ele>1810.2998046875</ele>
        <time>2015-07-09T09:45:24Z</time>
      </trkpt>
      <trkpt lat="42.80736" lon="-0.10107">
        <ele>1813.1838378906</ele>
        <time>2015-07-09T09:45:38Z</time>
      </trkpt>
      <trkpt lat="42.80742" lon="-0.10116">
        <ele>1815.1064453125</ele>
        <time>2015-07-09T09:45:53Z</time>
      </trkpt>
      <trkpt lat="42.80742" lon="-0.10117">
        <ele>1815.5871582031</ele>
        <time>2015-07-09T09:45:54Z</time>
      </trkpt>
      <trkpt lat="42.8075" lon="-0.10129">
        <ele>1817.990234375</ele>
        <time>2015-07-09T09:46:12Z</time>
      </trkpt>
      <trkpt lat="42.80749" lon="-0.10141">
        <ele>1817.0290527344</ele>
        <time>2015-07-09T09:46:25Z</time>
      </trkpt>
      <trkpt lat="42.80749" lon="-0.1015">
        <ele>1819.9128417969</ele>
        <time>2015-07-09T09:46:37Z</time>
      </trkpt>
      <trkpt lat="42.80737" lon="-0.10166">
        <ele>1821.3549804688</ele>
        <time>2015-07-09T09:46:54Z</time>
      </trkpt>
      <trkpt lat="42.80732" lon="-0.10174">
        <ele>1823.2778320312</ele>
        <time>2015-07-09T09:47:04Z</time>
      </trkpt>
      <trkpt lat="42.80722" lon="-0.10179">
        <ele>1825.6809082031</ele>
        <time>2015-07-09T09:47:18Z</time>
      </trkpt>
      <trkpt lat="42.80723" lon="-0.10187">
        <ele>1828.0842285156</ele>
        <time>2015-07-09T09:47:30Z</time>
      </trkpt>
      <trkpt lat="42.80734" lon="-0.10195">
        <ele>1830.0068359375</ele>
        <time>2015-07-09T09:47:49Z</time>
      </trkpt>
      <trkpt lat="42.80736" lon="-0.102">
        <ele>1832.41015625</ele>
        <time>2015-07-09T09:48:01Z</time>
      </trkpt>
      <trkpt lat="42.80729" lon="-0.10206">
        <ele>1835.2939453125</ele>
        <time>2015-07-09T09:48:14Z</time>
      </trkpt>
      <trkpt lat="42.80723" lon="-0.10211">
        <ele>1837.216796875</ele>
        <time>2015-07-09T09:48:26Z</time>
      </trkpt>
      <trkpt lat="42.80713" lon="-0.10219">
        <ele>1838.6589355469</ele>
        <time>2015-07-09T09:48:42Z</time>
      </trkpt>
      <trkpt lat="42.80707" lon="-0.10227">
        <ele>1840.1008300781</ele>
        <time>2015-07-09T09:48:53Z</time>
      </trkpt>
      <trkpt lat="42.80701" lon="-0.10237">
        <ele>1841.0620117188</ele>
        <time>2015-07-09T09:49:06Z</time>
      </trkpt>
      <trkpt lat="42.80696" lon="-0.1025">
        <ele>1844.9072265625</ele>
        <time>2015-07-09T09:49:20Z</time>
      </trkpt>
      <trkpt lat="42.80695" lon="-0.10266">
        <ele>1848.2717285156</ele>
        <time>2015-07-09T09:49:45Z</time>
      </trkpt>
      <trkpt lat="42.80699" lon="-0.10265">
        <ele>1848.2717285156</ele>
        <time>2015-07-09T09:49:48Z</time>
      </trkpt>
      <trkpt lat="42.80719" lon="-0.10261">
        <ele>1851.6364746094</ele>
        <time>2015-07-09T09:50:04Z</time>
      </trkpt>
      <trkpt lat="42.80723" lon="-0.10261">
        <ele>1854.0400390625</ele>
        <time>2015-07-09T09:50:22Z</time>
      </trkpt>
      <trkpt lat="42.80732" lon="-0.10259">
        <ele>1855.4819335938</ele>
        <time>2015-07-09T09:50:47Z</time>
      </trkpt>
      <trkpt lat="42.80733" lon="-0.10258">
        <ele>1855.4819335938</ele>
        <time>2015-07-09T09:51:12Z</time>
      </trkpt>
      <trkpt lat="42.80734" lon="-0.10256">
        <ele>1855.0012207031</ele>
        <time>2015-07-09T09:51:26Z</time>
      </trkpt>
      <trkpt lat="42.80733" lon="-0.10257">
        <ele>1854.5205078125</ele>
        <time>2015-07-09T09:52:18Z</time>
      </trkpt>
      <trkpt lat="42.80733" lon="-0.10256">
        <ele>1857.8852539062</ele>
        <time>2015-07-09T09:55:26Z</time>
      </trkpt>
      <trkpt lat="42.80734" lon="-0.10256">
        <ele>1861.2497558594</ele>
        <time>2015-07-09T09:57:03Z</time>
      </trkpt>
      <trkpt lat="42.80731" lon="-0.10256">
        <ele>1862.6916503906</ele>
        <time>2015-07-09T10:03:47Z</time>
      </trkpt>
      <trkpt lat="42.80733" lon="-0.10259">
        <ele>1866.0561523438</ele>
        <time>2015-07-09T10:07:15Z</time>
      </trkpt>
      <trkpt lat="42.80734" lon="-0.10255">
        <ele>1869.4211425781</ele>
        <time>2015-07-09T10:12:11Z</time>
      </trkpt>
      <trkpt lat="42.80727" lon="-0.10256">
        <ele>1868.9404296875</ele>
        <time>2015-07-09T10:17:41Z</time>
      </trkpt>
      <trkpt lat="42.80731" lon="-0.10256">
        <ele>1867.9787597656</ele>
        <time>2015-07-09T10:21:06Z</time>
      </trkpt>
      <trkpt lat="42.8073" lon="-0.10256">
        <ele>1870.8630371094</ele>
        <time>2015-07-09T10:23:22Z</time>
      </trkpt>
      <trkpt lat="42.80732" lon="-0.10257">
        <ele>1870.8630371094</ele>
        <time>2015-07-09T10:26:20Z</time>
      </trkpt>
      <trkpt lat="42.80732" lon="-0.10257">
        <ele>1871.82421875</ele>
        <time>2015-07-09T10:28:41Z</time>
      </trkpt>
      <trkpt lat="42.80739" lon="-0.10255">
        <ele>1868.9404296875</ele>
        <time>2015-07-09T10:30:46Z</time>
      </trkpt>
      <trkpt lat="42.80761" lon="-0.10288">
        <ele>1866.0561523438</ele>
        <time>2015-07-09T10:31:49Z</time>
      </trkpt>
      <trkpt lat="42.80773" lon="-0.10289">
        <ele>1862.6916503906</ele>
        <time>2015-07-09T10:32:23Z</time>
      </trkpt>
      <trkpt lat="42.80759" lon="-0.10269">
        <ele>1859.3271484375</ele>
        <time>2015-07-09T10:32:53Z</time>
      </trkpt>
      <trkpt lat="42.80733" lon="-0.10256">
        <ele>1859.3271484375</ele>
        <time>2015-07-09T10:36:30Z</time>
      </trkpt>
      <trkpt lat="42.80733" lon="-0.10258">
        <ele>1858.8464355469</ele>
        <time>2015-07-09T10:37:24Z</time>
      </trkpt>
      <trkpt lat="42.80734" lon="-0.10258">
        <ele>1861.73046875</ele>
        <time>2015-07-09T10:40:14Z</time>
      </trkpt>
      <trkpt lat="42.80734" lon="-0.10258">
        <ele>1861.2497558594</ele>
        <time>2015-07-09T10:40:32Z</time>
      </trkpt>
      <trkpt lat="42.80731" lon="-0.1026">
        <ele>1864.1335449219</ele>
        <time>2015-07-09T10:43:22Z</time>
      </trkpt>
      <trkpt lat="42.80731" lon="-0.1026">
        <ele>1867.017578125</ele>
        <time>2015-07-09T10:47:15Z</time>
      </trkpt>
      <trkpt lat="42.80738" lon="-0.10263">
        <ele>1867.9787597656</ele>
        <time>2015-07-09T10:57:46Z</time>
      </trkpt>
      <trkpt lat="42.80734" lon="-0.10261">
        <ele>1867.9787597656</ele>
        <time>2015-07-09T10:59:43Z</time>
      </trkpt>
      <trkpt lat="42.80732" lon="-0.1026">
        <ele>1867.498046875</ele>
        <time>2015-07-09T11:01:34Z</time>
      </trkpt>
      <trkpt lat="42.80732" lon="-0.10259">
        <ele>1868.9404296875</ele>
        <time>2015-07-09T11:02:47Z</time>
      </trkpt>
      <trkpt lat="42.80731" lon="-0.10259">
        <ele>1868.9404296875</ele>
        <time>2015-07-09T11:06:04Z</time>
      </trkpt>
      <trkpt lat="42.80731" lon="-0.1026">
        <ele>1871.82421875</ele>
        <time>2015-07-09T11:09:28Z</time>
      </trkpt>
      <trkpt lat="42.80733" lon="-0.10261">
        <ele>1875.1887207031</ele>
        <time>2015-07-09T11:22:54Z</time>
      </trkpt>
      <trkpt lat="42.80734" lon="-0.10261">
        <ele>1875.6694335938</ele>
        <time>2015-07-09T11:24:12Z</time>
      </trkpt>
      <trkpt lat="42.80722" lon="-0.10264">
        <ele>1876.1501464844</ele>
        <time>2015-07-09T11:25:39Z</time>
      </trkpt>
      <trkpt lat="42.80714" lon="-0.10267">
        <ele>1876.1501464844</ele>
        <time>2015-07-09T11:25:55Z</time>
      </trkpt>
      <trkpt lat="42.80707" lon="-0.10269">
        <ele>1874.2275390625</ele>
        <time>2015-07-09T11:26:19Z</time>
      </trkpt>
      <trkpt lat="42.80694" lon="-0.10271">
        <ele>1870.8630371094</ele>
        <time>2015-07-09T11:26:36Z</time>
      </trkpt>
      <trkpt lat="42.80683" lon="-0.10273">
        <ele>1869.4211425781</ele>
        <time>2015-07-09T11:26:55Z</time>
      </trkpt>
      <trkpt lat="42.80679" lon="-0.10271">
        <ele>1867.9787597656</ele>
        <time>2015-07-09T11:27:08Z</time>
      </trkpt>
      <trkpt lat="42.80682" lon="-0.10266">
        <ele>1866.0561523438</ele>
        <time>2015-07-09T11:27:24Z</time>
      </trkpt>
      <trkpt lat="42.80686" lon="-0.1026">
        <ele>1864.6142578125</ele>
        <time>2015-07-09T11:27:34Z</time>
      </trkpt>
      <trkpt lat="42.80689" lon="-0.10255">
        <ele>1863.6528320312</ele>
        <time>2015-07-09T11:27:42Z</time>
      </trkpt>
      <trkpt lat="42.80694" lon="-0.10246">
        <ele>1863.6528320312</ele>
        <time>2015-07-09T11:27:56Z</time>
      </trkpt>
      <trkpt lat="42.80696" lon="-0.10242">
        <ele>1861.73046875</ele>
        <time>2015-07-09T11:28:01Z</time>
      </trkpt>
      <trkpt lat="42.80705" lon="-0.10227">
        <ele>1859.8076171875</ele>
        <time>2015-07-09T11:28:20Z</time>
      </trkpt>
      <trkpt lat="42.80715" lon="-0.10214">
        <ele>1857.8852539062</ele>
        <time>2015-07-09T11:28:38Z</time>
      </trkpt>
      <trkpt lat="42.80721" lon="-0.10213">
        <ele>1856.923828125</ele>
        <time>2015-07-09T11:28:49Z</time>
      </trkpt>
      <trkpt lat="42.8072" lon="-0.10212">
        <ele>1856.4431152344</ele>
        <time>2015-07-09T11:28:59Z</time>
      </trkpt>
      <trkpt lat="42.80719" lon="-0.10211">
        <ele>1857.8852539062</ele>
        <time>2015-07-09T11:29:13Z</time>
      </trkpt>
      <trkpt lat="42.80727" lon="-0.10208">
        <ele>1857.4045410156</ele>
        <time>2015-07-09T11:29:44Z</time>
      </trkpt>
      <trkpt lat="42.80728" lon="-0.10206">
        <ele>1855.9624023438</ele>
        <time>2015-07-09T11:29:47Z</time>
      </trkpt>
      <trkpt lat="42.80734" lon="-0.102">
        <ele>1854.5205078125</ele>
        <time>2015-07-09T11:30:04Z</time>
      </trkpt>
      <trkpt lat="42.80734" lon="-0.10196">
        <ele>1852.5979003906</ele>
        <time>2015-07-09T11:30:17Z</time>
      </trkpt>
      <trkpt lat="42.80727" lon="-0.10189">
        <ele>1849.2331542969</ele>
        <time>2015-07-09T11:30:36Z</time>
      </trkpt>
      <trkpt lat="42.80725" lon="-0.10187">
        <ele>1848.2717285156</ele>
        <time>2015-07-09T11:30:40Z</time>
      </trkpt>
      <trkpt lat="42.8072" lon="-0.10184">
        <ele>1848.2717285156</ele>
        <time>2015-07-09T11:30:51Z</time>
      </trkpt>
      <trkpt lat="42.80725" lon="-0.10177">
        <ele>1846.3493652344</ele>
        <time>2015-07-09T11:31:05Z</time>
      </trkpt>
      <trkpt lat="42.80734" lon="-0.10169">
        <ele>1843.4653320312</ele>
        <time>2015-07-09T11:31:21Z</time>
      </trkpt>
      <trkpt lat="42.80736" lon="-0.10165">
        <ele>1842.5041503906</ele>
        <time>2015-07-09T11:31:25Z</time>
      </trkpt>
      <trkpt lat="42.80748" lon="-0.10147">
        <ele>1841.5427246094</ele>
        <time>2015-07-09T11:31:44Z</time>
      </trkpt>
      <trkpt lat="42.80757" lon="-0.10132">
        <ele>1841.5427246094</ele>
        <time>2015-07-09T11:32:01Z</time>
      </trkpt>
      <trkpt lat="42.80757" lon="-0.10116">
        <ele>1841.0620117188</ele>
        <time>2015-07-09T11:32:14Z</time>
      </trkpt>
      <trkpt lat="42.80749" lon="-0.10105">
        <ele>1838.1782226562</ele>
        <time>2015-07-09T11:32:33Z</time>
      </trkpt>
      <trkpt lat="42.80748" lon="-0.10096">
        <ele>1835.7746582031</ele>
        <time>2015-07-09T11:32:45Z</time>
      </trkpt>
      <trkpt lat="42.80734" lon="-0.10106">
        <ele>1834.3327636719</ele>
        <time>2015-07-09T11:33:02Z</time>
      </trkpt>
      <trkpt lat="42.80725" lon="-0.10108">
        <ele>1831.4487304688</ele>
        <time>2015-07-09T11:33:17Z</time>
      </trkpt>
      <trkpt lat="42.80721" lon="-0.10105">
        <ele>1829.5261230469</ele>
        <time>2015-07-09T11:33:32Z</time>
      </trkpt>
      <trkpt lat="42.80726" lon="-0.1009">
        <ele>1827.603515625</ele>
        <time>2015-07-09T11:33:48Z</time>
      </trkpt>
      <trkpt lat="42.80734" lon="-0.10076">
        <ele>1824.7197265625</ele>
        <time>2015-07-09T11:34:04Z</time>
      </trkpt>
      <trkpt lat="42.80735" lon="-0.10074">
        <ele>1825.2001953125</ele>
        <time>2015-07-09T11:34:06Z</time>
      </trkpt>
      <trkpt lat="42.80743" lon="-0.10052">
        <ele>1823.7583007812</ele>
        <time>2015-07-09T11:34:25Z</time>
      </trkpt>
      <trkpt lat="42.80748" lon="-0.1004">
        <ele>1820.8745117188</ele>
        <time>2015-07-09T11:34:39Z</time>
      </trkpt>
      <trkpt lat="42.80748" lon="-0.1003">
        <ele>1820.8745117188</ele>
        <time>2015-07-09T11:34:46Z</time>
      </trkpt>
      <trkpt lat="42.80751" lon="-0.1002">
        <ele>1820.3937988281</ele>
        <time>2015-07-09T11:34:54Z</time>
      </trkpt>
      <trkpt lat="42.80762" lon="-0.10007">
        <ele>1818.4709472656</ele>
        <time>2015-07-09T11:35:12Z</time>
      </trkpt>
      <trkpt lat="42.80763" lon="-0.10006">
        <ele>1817.5095214844</ele>
        <time>2015-07-09T11:35:14Z</time>
      </trkpt>
      <trkpt lat="42.80776" lon="-0.09988">
        <ele>1816.5483398438</ele>
        <time>2015-07-09T11:35:33Z</time>
      </trkpt>
      <trkpt lat="42.80793" lon="-0.0998">
        <ele>1814.6257324219</ele>
        <time>2015-07-09T11:35:51Z</time>
      </trkpt>
      <trkpt lat="42.80795" lon="-0.09969">
        <ele>1811.2612304688</ele>
        <time>2015-07-09T11:36:08Z</time>
      </trkpt>
      <trkpt lat="42.80795" lon="-0.09957">
        <ele>1810.2998046875</ele>
        <time>2015-07-09T11:36:23Z</time>
      </trkpt>
      <trkpt lat="42.80798" lon="-0.09944">
        <ele>1808.3771972656</ele>
        <time>2015-07-09T11:36:42Z</time>
      </trkpt>
      <trkpt lat="42.80801" lon="-0.09937">
        <ele>1807.8967285156</ele>
        <time>2015-07-09T11:37:08Z</time>
      </trkpt>
      <trkpt lat="42.808" lon="-0.09937">
        <ele>1807.416015625</ele>
        <time>2015-07-09T11:37:09Z</time>
      </trkpt>
      <trkpt lat="42.80791" lon="-0.09937">
        <ele>1809.3386230469</ele>
        <time>2015-07-09T11:37:24Z</time>
      </trkpt>
      <trkpt lat="42.80792" lon="-0.09939">
        <ele>1809.3386230469</ele>
        <time>2015-07-09T11:37:38Z</time>
      </trkpt>
      <trkpt lat="42.80792" lon="-0.09938">
        <ele>1808.8579101562</ele>
        <time>2015-07-09T11:37:40Z</time>
      </trkpt>
      <trkpt lat="42.80795" lon="-0.09938">
        <ele>1809.3386230469</ele>
        <time>2015-07-09T11:37:52Z</time>
      </trkpt>
      <trkpt lat="42.80801" lon="-0.0994">
        <ele>1809.3386230469</ele>
        <time>2015-07-09T11:38:00Z</time>
      </trkpt>
      <trkpt lat="42.80805" lon="-0.09941">
        <ele>1808.3771972656</ele>
        <time>2015-07-09T11:38:06Z</time>
      </trkpt>
      <trkpt lat="42.80808" lon="-0.09959">
        <ele>1805.9738769531</ele>
        <time>2015-07-09T11:38:22Z</time>
      </trkpt>
      <trkpt lat="42.80809" lon="-0.09967">
        <ele>1804.5319824219</ele>
        <time>2015-07-09T11:38:29Z</time>
      </trkpt>
      <trkpt lat="42.80811" lon="-0.09971">
        <ele>1805.9738769531</ele>
        <time>2015-07-09T11:38:32Z</time>
      </trkpt>
      <trkpt lat="42.80823" lon="-0.09983">
        <ele>1804.0515136719</ele>
        <time>2015-07-09T11:38:50Z</time>
      </trkpt>
      <trkpt lat="42.80832" lon="-0.09975">
        <ele>1801.6479492188</ele>
        <time>2015-07-09T11:39:05Z</time>
      </trkpt>
      <trkpt lat="42.80837" lon="-0.09963">
        <ele>1800.6865234375</ele>
        <time>2015-07-09T11:39:19Z</time>
      </trkpt>
      <trkpt lat="42.80844" lon="-0.09961">
        <ele>1798.7639160156</ele>
        <time>2015-07-09T11:39:33Z</time>
      </trkpt>
      <trkpt lat="42.80856" lon="-0.09964">
        <ele>1796.8413085938</ele>
        <time>2015-07-09T11:39:49Z</time>
      </trkpt>
      <trkpt lat="42.80869" lon="-0.09971">
        <ele>1794.9187011719</ele>
        <time>2015-07-09T11:40:06Z</time>
      </trkpt>
      <trkpt lat="42.80884" lon="-0.09983">
        <ele>1795.3994140625</ele>
        <time>2015-07-09T11:40:25Z</time>
      </trkpt>
      <trkpt lat="42.80884" lon="-0.09996">
        <ele>1794.9187011719</ele>
        <time>2015-07-09T11:40:40Z</time>
      </trkpt>
      <trkpt lat="42.80891" lon="-0.10002">
        <ele>1793.9575195312</ele>
        <time>2015-07-09T11:40:54Z</time>
      </trkpt>
      <trkpt lat="42.80907" lon="-0.10004">
        <ele>1792.99609375</ele>
        <time>2015-07-09T11:41:11Z</time>
      </trkpt>
      <trkpt lat="42.80915" lon="-0.09999">
        <ele>1792.515625</ele>
        <time>2015-07-09T11:41:19Z</time>
      </trkpt>
      <trkpt lat="42.80923" lon="-0.09996">
        <ele>1791.5541992188</ele>
        <time>2015-07-09T11:41:27Z</time>
      </trkpt>
      <trkpt lat="42.80934" lon="-0.10003">
        <ele>1792.515625</ele>
        <time>2015-07-09T11:41:42Z</time>
      </trkpt>
      <trkpt lat="42.80936" lon="-0.10006">
        <ele>1790.5927734375</ele>
        <time>2015-07-09T11:41:45Z</time>
      </trkpt>
      <trkpt lat="42.80942" lon="-0.10013">
        <ele>1789.1508789062</ele>
        <time>2015-07-09T11:41:57Z</time>
      </trkpt>
      <trkpt lat="42.80943" lon="-0.10003">
        <ele>1788.1896972656</ele>
        <time>2015-07-09T11:42:08Z</time>
      </trkpt>
      <trkpt lat="42.80947" lon="-0.09995">
        <ele>1785.7861328125</ele>
        <time>2015-07-09T11:42:21Z</time>
      </trkpt>
      <trkpt lat="42.80956" lon="-0.09996">
        <ele>1785.3054199219</ele>
        <time>2015-07-09T11:42:36Z</time>
      </trkpt>
      <trkpt lat="42.80961" lon="-0.09987">
        <ele>1782.4216308594</ele>
        <time>2015-07-09T11:42:47Z</time>
      </trkpt>
      <trkpt lat="42.80971" lon="-0.0998">
        <ele>1779.5375976562</ele>
        <time>2015-07-09T11:43:02Z</time>
      </trkpt>
      <trkpt lat="42.80977" lon="-0.09971">
        <ele>1777.6149902344</ele>
        <time>2015-07-09T11:43:15Z</time>
      </trkpt>
      <trkpt lat="42.80984" lon="-0.09966">
        <ele>1777.6149902344</ele>
        <time>2015-07-09T11:43:31Z</time>
      </trkpt>
      <trkpt lat="42.80993" lon="-0.09963">
        <ele>1776.1730957031</ele>
        <time>2015-07-09T11:43:44Z</time>
      </trkpt>
      <trkpt lat="42.81008" lon="-0.09958">
        <ele>1774.2504882812</ele>
        <time>2015-07-09T11:44:02Z</time>
      </trkpt>
      <trkpt lat="42.81015" lon="-0.09955">
        <ele>1773.2893066406</ele>
        <time>2015-07-09T11:44:10Z</time>
      </trkpt>
      <trkpt lat="42.8104" lon="-0.09951">
        <ele>1770.4050292969</ele>
        <time>2015-07-09T11:44:33Z</time>
      </trkpt>
      <trkpt lat="42.81058" lon="-0.09951">
        <ele>1768.9631347656</ele>
        <time>2015-07-09T11:44:51Z</time>
      </trkpt>
      <trkpt lat="42.81082" lon="-0.09946">
        <ele>1766.5598144531</ele>
        <time>2015-07-09T11:45:12Z</time>
      </trkpt>
      <trkpt lat="42.81095" lon="-0.09949">
        <ele>1765.1179199219</ele>
        <time>2015-07-09T11:45:28Z</time>
      </trkpt>
      <trkpt lat="42.81098" lon="-0.09948">
        <ele>1764.6372070312</ele>
        <time>2015-07-09T11:45:41Z</time>
      </trkpt>
      <trkpt lat="42.81105" lon="-0.09945">
        <ele>1763.1953125</ele>
        <time>2015-07-09T11:46:05Z</time>
      </trkpt>
      <trkpt lat="42.81107" lon="-0.0995">
        <ele>1763.67578125</ele>
        <time>2015-07-09T11:46:30Z</time>
      </trkpt>
      <trkpt lat="42.81115" lon="-0.09953">
        <ele>1763.1953125</ele>
        <time>2015-07-09T11:46:44Z</time>
      </trkpt>
      <trkpt lat="42.81115" lon="-0.09953">
        <ele>1763.67578125</ele>
        <time>2015-07-09T11:47:04Z</time>
      </trkpt>
      <trkpt lat="42.81119" lon="-0.09962">
        <ele>1762.7145996094</ele>
        <time>2015-07-09T11:47:18Z</time>
      </trkpt>
      <trkpt lat="42.81129" lon="-0.09963">
        <ele>1761.2727050781</ele>
        <time>2015-07-09T11:47:32Z</time>
      </trkpt>
      <trkpt lat="42.81137" lon="-0.09961">
        <ele>1759.8305664062</ele>
        <time>2015-07-09T11:47:43Z</time>
      </trkpt>
      <trkpt lat="42.81142" lon="-0.0996">
        <ele>1756.9467773438</ele>
        <time>2015-07-09T11:47:51Z</time>
      </trkpt>
      <trkpt lat="42.81148" lon="-0.09959">
        <ele>1755.5046386719</ele>
        <time>2015-07-09T11:48:05Z</time>
      </trkpt>
      <trkpt lat="42.81152" lon="-0.09953">
        <ele>1754.0627441406</ele>
        <time>2015-07-09T11:48:17Z</time>
      </trkpt>
      <trkpt lat="42.81158" lon="-0.09954">
        <ele>1753.1013183594</ele>
        <time>2015-07-09T11:48:28Z</time>
      </trkpt>
      <trkpt lat="42.81165" lon="-0.09951">
        <ele>1751.1787109375</ele>
        <time>2015-07-09T11:48:40Z</time>
      </trkpt>
      <trkpt lat="42.81173" lon="-0.09946">
        <ele>1748.2946777344</ele>
        <time>2015-07-09T11:49:09Z</time>
      </trkpt>
      <trkpt lat="42.81186" lon="-0.0994">
        <ele>1745.4108886719</ele>
        <time>2015-07-09T11:49:31Z</time>
      </trkpt>
      <trkpt lat="42.81195" lon="-0.09939">
        <ele>1744.9301757812</ele>
        <time>2015-07-09T11:49:40Z</time>
      </trkpt>
      <trkpt lat="42.81204" lon="-0.09934">
        <ele>1742.5270996094</ele>
        <time>2015-07-09T11:49:55Z</time>
      </trkpt>
      <trkpt lat="42.81207" lon="-0.09922">
        <ele>1740.1237792969</ele>
        <time>2015-07-09T11:50:16Z</time>
      </trkpt>
      <trkpt lat="42.81218" lon="-0.09908">
        <ele>1737.2395019531</ele>
        <time>2015-07-09T11:51:03Z</time>
      </trkpt>
      <trkpt lat="42.81222" lon="-0.09907">
        <ele>1734.3557128906</ele>
        <time>2015-07-09T11:51:12Z</time>
      </trkpt>
      <trkpt lat="42.81232" lon="-0.09901">
        <ele>1731.9523925781</ele>
        <time>2015-07-09T11:51:29Z</time>
      </trkpt>
      <trkpt lat="42.81249" lon="-0.09897">
        <ele>1731.4716796875</ele>
        <time>2015-07-09T11:51:49Z</time>
      </trkpt>
      <trkpt lat="42.81258" lon="-0.099">
        <ele>1730.5104980469</ele>
        <time>2015-07-09T11:51:57Z</time>
      </trkpt>
      <trkpt lat="42.81269" lon="-0.09905">
        <ele>1729.068359375</ele>
        <time>2015-07-09T11:52:09Z</time>
      </trkpt>
      <trkpt lat="42.81281" lon="-0.09906">
        <ele>1728.1071777344</ele>
        <time>2015-07-09T11:52:18Z</time>
      </trkpt>
      <trkpt lat="42.81283" lon="-0.09906">
        <ele>1726.6652832031</ele>
        <time>2015-07-09T11:52:29Z</time>
      </trkpt>
      <trkpt lat="42.81291" lon="-0.09906">
        <ele>1724.7426757812</ele>
        <time>2015-07-09T11:52:44Z</time>
      </trkpt>
      <trkpt lat="42.81299" lon="-0.09902">
        <ele>1724.7426757812</ele>
        <time>2015-07-09T11:52:56Z</time>
      </trkpt>
      <trkpt lat="42.81308" lon="-0.09902">
        <ele>1724.7426757812</ele>
        <time>2015-07-09T11:53:06Z</time>
      </trkpt>
      <trkpt lat="42.81316" lon="-0.09899">
        <ele>1724.2619628906</ele>
        <time>2015-07-09T11:53:19Z</time>
      </trkpt>
      <trkpt lat="42.81318" lon="-0.09888">
        <ele>1723.3005371094</ele>
        <time>2015-07-09T11:53:30Z</time>
      </trkpt>
      <trkpt lat="42.81321" lon="-0.09873">
        <ele>1722.3391113281</ele>
        <time>2015-07-09T11:53:50Z</time>
      </trkpt>
      <trkpt lat="42.81326" lon="-0.09874">
        <ele>1721.8583984375</ele>
        <time>2015-07-09T11:54:17Z</time>
      </trkpt>
      <trkpt lat="42.81338" lon="-0.09878">
        <ele>1719.9357910156</ele>
        <time>2015-07-09T11:54:31Z</time>
      </trkpt>
      <trkpt lat="42.81344" lon="-0.0987">
        <ele>1718.4938964844</ele>
        <time>2015-07-09T11:54:42Z</time>
      </trkpt>
      <trkpt lat="42.81355" lon="-0.09869">
        <ele>1717.0520019531</ele>
        <time>2015-07-09T11:54:55Z</time>
      </trkpt>
      <trkpt lat="42.81366" lon="-0.09873">
        <ele>1715.6101074219</ele>
        <time>2015-07-09T11:55:15Z</time>
      </trkpt>
      <trkpt lat="42.81373" lon="-0.09879">
        <ele>1716.0905761719</ele>
        <time>2015-07-09T11:55:23Z</time>
      </trkpt>
      <trkpt lat="42.8139" lon="-0.09884">
        <ele>1716.5712890625</ele>
        <time>2015-07-09T11:55:37Z</time>
      </trkpt>
      <trkpt lat="42.81398" lon="-0.09891">
        <ele>1717.5324707031</ele>
        <time>2015-07-09T11:55:49Z</time>
      </trkpt>
      <trkpt lat="42.81403" lon="-0.09889">
        <ele>1717.0520019531</ele>
        <time>2015-07-09T11:55:59Z</time>
      </trkpt>
      <trkpt lat="42.81414" lon="-0.0989">
        <ele>1715.1293945312</ele>
        <time>2015-07-09T11:56:11Z</time>
      </trkpt>
      <trkpt lat="42.81418" lon="-0.09879">
        <ele>1712.2453613281</ele>
        <time>2015-07-09T11:56:29Z</time>
      </trkpt>
      <trkpt lat="42.8142" lon="-0.09875">
        <ele>1710.3227539062</ele>
        <time>2015-07-09T11:56:37Z</time>
      </trkpt>
      <trkpt lat="42.81429" lon="-0.09874">
        <ele>1707.4387207031</ele>
        <time>2015-07-09T11:57:01Z</time>
      </trkpt>
      <trkpt lat="42.81442" lon="-0.09872">
        <ele>1703.5935058594</ele>
        <time>2015-07-09T11:57:35Z</time>
      </trkpt>
      <trkpt lat="42.81453" lon="-0.09874">
        <ele>1702.6320800781</ele>
        <time>2015-07-09T11:57:47Z</time>
      </trkpt>
      <trkpt lat="42.81455" lon="-0.09861">
        <ele>1700.2290039062</ele>
        <time>2015-07-09T11:58:10Z</time>
      </trkpt>
      <trkpt lat="42.81463" lon="-0.0986">
        <ele>1696.8642578125</ele>
        <time>2015-07-09T11:58:32Z</time>
      </trkpt>
      <trkpt lat="42.81476" lon="-0.09859">
        <ele>1693.4997558594</ele>
        <time>2015-07-09T11:58:44Z</time>
      </trkpt>
      <trkpt lat="42.81489" lon="-0.09861">
        <ele>1692.0578613281</ele>
        <time>2015-07-09T11:58:58Z</time>
      </trkpt>
      <trkpt lat="42.81504" lon="-0.0986">
        <ele>1692.0578613281</ele>
        <time>2015-07-09T11:59:10Z</time>
      </trkpt>
      <trkpt lat="42.8151" lon="-0.0986">
        <ele>1692.5385742188</ele>
        <time>2015-07-09T11:59:29Z</time>
      </trkpt>
      <trkpt lat="42.81491" lon="-0.09855">
        <ele>1695.9030761719</ele>
        <time>2015-07-09T12:00:24Z</time>
      </trkpt>
      <trkpt lat="42.8149" lon="-0.09858">
        <ele>1695.4223632812</ele>
        <time>2015-07-09T12:00:30Z</time>
      </trkpt>
      <trkpt lat="42.81493" lon="-0.09862">
        <ele>1692.0578613281</ele>
        <time>2015-07-09T12:00:56Z</time>
      </trkpt>
      <trkpt lat="42.81496" lon="-0.09859">
        <ele>1691.0961914062</ele>
        <time>2015-07-09T12:01:08Z</time>
      </trkpt>
      <trkpt lat="42.81506" lon="-0.09853">
        <ele>1689.1735839844</ele>
        <time>2015-07-09T12:01:17Z</time>
      </trkpt>
      <trkpt lat="42.81523" lon="-0.09852">
        <ele>1689.1735839844</ele>
        <time>2015-07-09T12:01:30Z</time>
      </trkpt>
      <trkpt lat="42.81528" lon="-0.09851">
        <ele>1688.2124023438</ele>
        <time>2015-07-09T12:01:34Z</time>
      </trkpt>
      <trkpt lat="42.81536" lon="-0.09848">
        <ele>1687.7316894531</ele>
        <time>2015-07-09T12:01:45Z</time>
      </trkpt>
      <trkpt lat="42.81539" lon="-0.09843">
        <ele>1683.8864746094</ele>
        <time>2015-07-09T12:03:06Z</time>
      </trkpt>
      <trkpt lat="42.81548" lon="-0.09836">
        <ele>1683.4057617188</ele>
        <time>2015-07-09T12:03:18Z</time>
      </trkpt>
      <trkpt lat="42.81554" lon="-0.0983">
        <ele>1684.3671875</ele>
        <time>2015-07-09T12:03:45Z</time>
      </trkpt>
    </trkseg>
  </trk>
</gpx>